Portada
METAR-TAF:

METAR-TAF

Aeroports :

Shenyang, Xina

latitud: 41-48N, longitud: 123-24E, altitud: 35 m

Observació

L'informe es va fer fa 29 minuts, a les 04:00 UTC
Vent 6 kt amb direcció variable
Temperatura 12°C
Humitat 17%
Pressió 1032 hPa
Visibilitat 10 km o més
sense núvols per sota de 1500 mi sense presència de cumulonimbus.

METAR: ZYTX 150400Z VRB03MPS CAVOK 12/M12 Q1032 NOSIG

Hora: 12:29 (04:29 UTC)

Pronòstic

L'informe es va fer fa 9 hores i 19 minuts, a les 19:10 UTC
Pronòstic vàlid del 15 a les 00 UTC al 15 a les 24 UTC
Vent 6 kt del Sud/Sud-Oest
Visibilitat 10 km o més
sense núvols per sota de 1500 mi sense presència de cumulonimbus.

TAF: ZYTX 141910Z 1500/1524 20003MPS CAVOK TX14/1506Z TN00/1521Z

Observacions i pronòstics meteorològics de més de 4000 aeroports (METAR i TAF).

Les estacions disponibles són els punts grocs i vermells al mapa.

Posi el ratolí al punt desitjat per veure el nom de l'estació.

Feu clic per veure les observacions i els pronòstics meteorològics.

Per canviar el mapa: feu clic els botons verds amb una creu de color negre per apropar; al botó verd amb un guió per allunyar la imatge; o en les fletxes verdes per a mapes adjacents.


METAR-TAF: